KFFT/FFT METAR and TAF weather

Enter ICAO airport designator
Station Type Date Time Source
KFFT METAR 2019/10/23 07:53 UTC NOAA

KFFT 230753Z AUTO 22006KT 10SM CLR 05/02 A3004 RMK AO2 SLP172 T00500017


Station Type Date Time Source
KFFT Decoded METAR 2019/10/23 07:53 UTC NOAA

FRANKFORT CAPITAL CITY AIRPORT , KY, United States (KFFT) 38-11N 84-54W 236M
Oct 23, 2019 - 03:53 AM EDT / 2019.10.23 0753 UTC
Wind: from the SW (220 degrees) at 7 MPH (6 KT):0
Visibility: 10 mile(s):0
Sky conditions: clear
Temperature: 41.0 F (5.0 C)
Dew Point: 35.1 F (1.7 C)
Relative Humidity: 79%
Pressure (altimeter): 30.04 in. Hg (1017 hPa)
ob: KFFT 230753Z AUTO 22006KT 10SM CLR 05/02 A3004 RMK AO2 SLP172 T00500017
cycle: 8

Station Type Date Time Source
KFFT TAF UTC NOAA

Error!

Example: see airport list